Time;durP1;ratioP1;P1;durP2;ratioP2;P2;SDS_P1;SDS_P2;PMS_P1;PMS_P2;Temp;Humidity;BMP_temperature;BMP_pressure;BME280_temperature;BME280_humidity;BME280_pressure;Samples;Min_cycle;Max_cycle;Signal;HPM_P1;HPM_P2
2023/06/16 00:00:43;;;;;;;13.85;4.43;;;;;;;-144.73;58.57;54128.56;5030993;28;20052;-69
2023/06/16 00:03:09;;;;;;;14.25;5.00;;;;;;;-144.73;58.68;54149.09;5029178;28;20030;-68
2023/06/16 00:05:35;;;;;;;11.82;4.22;;;;;;;-144.73;58.84;54103.94;5033557;28;20022;-69
2023/06/16 00:08:02;;;;;;;8.82;4.43;;;;;;;-144.73;58.82;54145.00;5057393;28;20040;-69
2023/06/16 00:10:28;;;;;;;14.68;4.80;;;;;;;-144.73;59.67;54126.53;5035103;28;20480;-71
2023/06/16 00:12:53;;;;;;;11.10;4.07;;;;;;;-144.73;59.51;54112.16;5029727;28;20120;-69
2023/06/16 00:15:20;;;;;;;7.38;4.25;;;;;;;-144.73;59.73;54157.31;5054698;28;20020;-69
2023/06/16 00:17:46;;;;;;;8.55;4.05;;;;;;;-144.73;59.88;54153.19;5041095;28;20488;-69
2023/06/16 00:20:19;;;;;;;7.60;4.90;;;;;;;-144.73;58.47;54147.03;5031584;28;20101;-69
2023/06/16 00:22:47;;;;;;;13.38;4.45;;;;;;;-144.73;58.38;54177.81;5054191;28;20032;-69
2023/06/16 00:25:15;;;;;;;17.33;4.60;;;;;;;-144.73;58.01;54124.47;5043316;28;20051;-70
2023/06/16 00:27:40;;;;;;;13.75;4.22;;;;;;;-144.73;58.28;54114.19;5035924;28;20082;-69
2023/06/16 00:30:07;;;;;;;9.80;4.07;;;;;;;-144.73;58.28;54114.19;5031519;28;20016;-70
2023/06/16 00:32:32;;;;;;;6.93;4.40;;;;;;;-144.73;58.34;54145.00;5044026;28;20029;-70
2023/06/16 00:34:57;;;;;;;15.75;4.80;;;;;;;-144.73;58.62;54145.00;5051410;28;20024;-69
2023/06/16 00:37:22;;;;;;;18.27;4.38;;;;;;;-144.73;58.19;54112.16;5036855;28;20045;-70
2023/06/16 00:39:48;;;;;;;13.90;4.30;;;;;;;-144.73;58.72;54095.72;5054158;28;20029;-70
2023/06/16 00:42:13;;;;;;;8.20;4.55;;;;;;;-144.73;58.81;54124.47;5038307;28;20138;-69
2023/06/16 00:44:38;;;;;;;7.97;4.47;;;;;;;-144.73;59.45;54128.56;5051061;28;20099;-69
2023/06/16 00:47:04;;;;;;;11.73;4.72;;;;;;;-144.73;58.96;54167.56;5049497;28;20136;-69
2023/06/16 00:49:30;;;;;;;12.25;4.35;;;;;;;-144.73;59.27;54134.72;5059392;28;20029;-69
2023/06/16 00:51:56;;;;;;;11.75;4.20;;;;;;;-144.73;59.07;54147.03;5053085;28;20438;-69
2023/06/16 00:54:22;;;;;;;8.35;4.72;;;;;;;-144.73;59.04;54132.69;5062684;28;20035;-70
2023/06/16 00:56:51;;;;;;;8.27;4.05;;;;;;;-144.73;59.02;54132.69;5057759;28;20195;-70
2023/06/16 00:59:17;;;;;;;11.55;4.28;;;;;;;-144.73;59.96;54157.31;5037139;28;20075;-69
2023/06/16 01:01:42;;;;;;;8.70;3.72;;;;;;;-144.73;60.60;54161.41;5036937;28;20060;-69
2023/06/16 01:04:09;;;;;;;8.68;4.00;;;;;;;-144.73;60.52;54145.00;5042154;28;20084;-69
2023/06/16 01:06:37;;;;;;;9.93;4.70;;;;;;;-144.73;60.37;54128.56;5041187;28;20021;-69
2023/06/16 01:09:42;;;;;;;10.07;4.45;;;;;;;-144.73;60.34;54153.19;5043138;28;20029;-69
2023/06/16 01:12:25;;;;;;;10.25;4.75;;;;;;;-144.73;60.30;54145.00;5014747;28;20037;-69
2023/06/16 01:15:05;;;;;;;10.88;4.20;;;;;;;-144.73;60.84;54145.00;5065573;28;20025;-69
2023/06/16 01:17:35;;;;;;;13.65;4.28;;;;;;;-144.73;60.35;54120.34;5043106;28;20032;-69
2023/06/16 01:20:14;;;;;;;10.18;4.63;;;;;;;-144.73;60.18;54157.31;5058601;28;20115;-69
2023/06/16 01:22:55;;;;;;;13.65;4.43;;;;;;;-144.73;59.06;54120.34;5039479;28;20114;-70
2023/06/16 01:25:28;;;;;;;8.80;4.80;;;;;;;-144.73;60.03;54134.72;5045379;28;20017;-70
2023/06/16 01:27:54;;;;;;;6.53;4.30;;;;;;;-144.73;60.23;54130.63;5030399;28;20036;-70
2023/06/16 01:30:22;;;;;;;14.00;4.38;;;;;;;-144.73;62.03;54122.41;5032477;28;20021;-70
2023/06/16 01:32:53;;;;;;;8.73;4.45;;;;;;;-144.73;63.66;54124.47;5048691;28;20076;-70
2023/06/16 01:35:20;;;;;;;12.20;4.18;;;;;;;-144.73;62.79;54120.34;5040803;28;20085;-70
2023/06/16 01:37:47;;;;;;;15.02;4.38;;;;;;;-144.73;64.28;54169.63;5050455;28;20033;-70
2023/06/16 01:40:13;;;;;;;9.68;4.55;;;;;;;-144.73;64.51;54145.00;5065456;28;20039;-70
2023/06/16 01:42:39;;;;;;;5.75;3.90;;;;;;;-144.73;71.00;54136.78;5032268;28;20037;-70
2023/06/16 01:45:06;;;;;;;9.80;4.88;;;;;;;-144.73;73.30;54165.50;5046727;28;20120;-70
2023/06/16 01:47:32;;;;;;;9.55;5.03;;;;;;;-144.73;70.86;54165.50;5031820;28;20053;-70
2023/06/16 01:49:58;;;;;;;8.10;4.70;;;;;;;-144.73;69.08;54145.00;5048072;28;20031;-70
2023/06/16 01:52:23;;;;;;;6.65;4.38;;;;;;;-144.73;67.87;54132.69;5031890;28;20413;-70
2023/06/16 01:54:48;;;;;;;9.40;4.78;;;;;;;-144.73;67.20;54161.41;5055405;28;20028;-70
2023/06/16 01:57:14;;;;;;;12.52;4.18;;;;;;;-144.73;67.07;54149.09;5031756;28;20078;-70
2023/06/16 01:59:39;;;;;;;12.98;4.13;;;;;;;-144.73;68.01;54145.00;5045735;28;20029;-70
2023/06/16 02:02:13;;;;;;;12.15;4.43;;;;;;;-144.73;69.77;54157.31;5027871;28;20037;-70
2023/06/16 02:04:42;;;;;;;6.50;4.55;;;;;;;-144.73;68.41;54130.63;5049618;28;20021;-70
2023/06/16 02:07:12;;;;;;;8.70;4.80;;;;;;;-144.73;68.32;54145.00;5036768;28;20112;-70
2023/06/16 02:09:39;;;;;;;12.00;4.67;;;;;;;-144.73;68.04;54157.31;5044183;28;20044;-70
2023/06/16 02:12:09;;;;;;;10.07;4.40;;;;;;;-144.73;68.50;54153.19;5054135;28;20090;-70
2023/06/16 02:14:35;;;;;;;12.95;4.72;;;;;;;-144.73;68.80;54145.00;5051242;28;20078;-70
2023/06/16 02:17:05;;;;;;;14.98;4.32;;;;;;;-144.73;69.53;54149.09;5048937;28;20033;-70
2023/06/16 02:19:32;;;;;;;9.48;4.55;;;;;;;-144.73;71.12;54124.47;5049547;28;20025;-70
2023/06/16 02:21:57;;;;;;;7.78;4.65;;;;;;;-144.73;70.48;54103.94;5030921;28;20063;-70
2023/06/16 02:24:23;;;;;;;8.70;4.95;;;;;;;-144.73;72.65;54132.69;5062935;28;20028;-70
2023/06/16 02:26:49;;;;;;;7.07;4.47;;;;;;;-144.73;70.82;54177.81;5039127;28;20029;-70
2023/06/16 02:29:14;;;;;;;8.88;4.88;;;;;;;-144.73;69.64;54145.00;5055378;28;20074;-70
2023/06/16 02:31:39;;;;;;;8.15;4.80;;;;;;;-144.73;68.64;54136.78;5035252;28;20040;-70
2023/06/16 02:34:05;;;;;;;7.70;4.18;;;;;;;-144.73;68.12;54165.50;5032829;28;20050;-70
2023/06/16 02:36:30;;;;;;;7.53;4.75;;;;;;;-144.73;67.84;54145.00;5036299;28;20020;-70
2023/06/16 02:38:56;;;;;;;11.20;4.20;;;;;;;-144.73;69.45;54167.56;5029369;28;20020;-70
2023/06/16 02:41:21;;;;;;;10.93;4.53;;;;;;;-144.73;69.61;54186.03;5048983;28;20074;-70
2023/06/16 02:43:47;;;;;;;5.00;3.88;;;;;;;-144.73;70.71;54177.81;5036612;28;20070;-70
2023/06/16 02:46:12;;;;;;;9.18;4.30;;;;;;;-144.73;69.55;54165.50;5045356;28;20050;-70
2023/06/16 02:48:37;;;;;;;13.35;5.82;;;;;;;-144.73;68.77;54165.50;5042042;28;20124;-70
2023/06/16 02:51:03;;;;;;;7.78;4.43;;;;;;;-144.73;68.73;54120.34;5035852;28;20016;-70
2023/06/16 02:53:29;;;;;;;13.85;5.65;;;;;;;-144.73;68.45;54151.16;5046600;28;20040;-70
2023/06/16 02:55:56;;;;;;;17.42;8.55;;;;;;;-144.73;72.11;54153.19;5041270;28;20103;-69
2023/06/16 02:58:22;;;;;;;11.85;6.63;;;;;;;-144.73;71.64;54161.41;5038850;28;20043;-70
2023/06/16 03:00:47;;;;;;;13.18;5.53;;;;;;;-144.73;71.19;54145.00;5054156;28;20111;-69
2023/06/16 03:03:13;;;;;;;11.68;4.82;;;;;;;-144.73;70.65;54190.13;5040796;28;20116;-70
2023/06/16 03:05:38;;;;;;;10.32;5.40;;;;;;;-144.73;71.11;54165.50;5043444;28;20025;-70
2023/06/16 03:08:04;;;;;;;11.68;5.28;;;;;;;-144.73;71.35;54151.16;5052387;28;20037;-69
2023/06/16 03:10:30;;;;;;;14.48;5.45;;;;;;;-144.73;72.83;54145.00;5040156;28;20104;-70
2023/06/16 03:12:55;;;;;;;13.55;5.20;;;;;;;-144.73;72.97;54188.09;5038034;28;20112;-69
2023/06/16 03:15:25;;;;;;;10.02;5.25;;;;;;;-144.73;73.46;54112.16;5042977;28;20032;-69
2023/06/16 03:17:51;;;;;;;12.93;4.85;;;;;;;-144.73;74.55;54128.56;5046349;28;20025;-70
2023/06/16 03:20:16;;;;;;;12.75;4.75;;;;;;;-144.73;73.20;54124.47;5034737;28;20213;-70
2023/06/16 03:22:42;;;;;;;6.20;4.50;;;;;;;-144.73;73.90;54177.81;5038200;28;20082;-69
2023/06/16 03:25:07;;;;;;;11.23;4.82;;;;;;;-144.73;75.84;54165.50;5048193;28;20171;-69
2023/06/16 03:27:33;;;;;;;11.32;4.75;;;;;;;-144.73;77.65;54165.50;5031483;28;20090;-69
2023/06/16 03:29:59;;;;;;;11.77;5.78;;;;;;;-144.73;78.31;54206.56;5031624;28;20115;-69
2023/06/16 03:32:24;;;;;;;9.43;4.97;;;;;;;-144.73;78.48;54190.13;5031147;28;20041;-69
2023/06/16 03:34:50;;;;;;;10.63;5.05;;;;;;;-144.73;77.54;54194.25;5049305;28;20104;-70
2023/06/16 03:37:16;;;;;;;10.13;5.63;;;;;;;-144.73;76.58;54157.31;5053101;28;20041;-69
2023/06/16 03:39:42;;;;;;;20.88;5.57;;;;;;;-144.73;77.06;54190.13;5031582;28;20577;-70
2023/06/16 03:42:07;;;;;;;16.33;5.20;;;;;;;-144.73;77.43;54177.81;5031021;28;20057;-70
2023/06/16 03:44:33;;;;;;;13.57;5.78;;;;;;;-144.73;76.49;54183.97;5043333;28;20020;-70
2023/06/16 03:46:58;;;;;;;11.13;5.05;;;;;;;-144.73;76.45;54190.13;5040283;28;20117;-70
2023/06/16 03:49:24;;;;;;;7.85;4.45;;;;;;;-144.73;78.01;54132.69;5063086;28;20035;-70
2023/06/16 03:51:49;;;;;;;13.80;5.38;;;;;;;-144.73;78.38;54132.69;5038487;28;20064;-70
2023/06/16 03:54:17;;;;;;;10.48;5.43;;;;;;;-144.73;78.68;54149.09;5054056;28;20033;-70
2023/06/16 03:56:43;;;;;;;8.43;4.68;;;;;;;-144.73;78.42;54186.03;5036425;28;20491;-70
2023/06/16 03:59:08;;;;;;;16.20;5.68;;;;;;;-144.73;78.16;54157.31;5041106;28;20071;-70
2023/06/16 04:01:36;;;;;;;8.57;4.85;;;;;;;-144.73;78.30;54175.78;5039567;28;20092;-70
2023/06/16 04:04:02;;;;;;;9.98;4.45;;;;;;;-144.73;78.25;54161.41;5044779;28;20047;-69
2023/06/16 04:06:28;;;;;;;9.65;4.60;;;;;;;-144.73;79.30;54153.19;5059503;28;20028;-69
2023/06/16 04:08:56;;;;;;;12.77;4.93;;;;;;;-144.73;78.73;54186.03;5042953;28;20021;-69
2023/06/16 04:11:22;;;;;;;8.95;4.68;;;;;;;-144.73;80.47;54169.63;5037263;28;20038;-69
2023/06/16 04:13:48;;;;;;;14.30;5.28;;;;;;;-144.73;80.39;54169.63;5031220;28;20037;-69
2023/06/16 04:16:14;;;;;;;12.88;4.43;;;;;;;-144.73;80.59;54177.81;5046359;28;20029;-70
2023/06/16 04:18:39;;;;;;;11.23;5.13;;;;;;;-144.73;79.82;54181.94;5044137;28;20037;-69
2023/06/16 04:21:05;;;;;;;12.18;4.75;;;;;;;-144.73;79.91;54202.44;5030912;28;20022;-69
2023/06/16 04:23:30;;;;;;;11.77;5.53;;;;;;;-144.73;78.41;54153.19;5034179;28;20120;-69
2023/06/16 04:25:55;;;;;;;10.52;5.25;;;;;;;-144.73;78.80;54194.25;5046305;28;20029;-69
2023/06/16 04:28:22;;;;;;;11.40;5.15;;;;;;;-144.73;79.35;54222.97;5043192;28;20032;-69
2023/06/16 04:30:49;;;;;;;18.27;6.75;;;;;;;-144.73;79.18;54165.50;5055760;28;20021;-70
2023/06/16 04:33:14;;;;;;;11.88;5.53;;;;;;;-144.73;79.26;54186.03;5033450;28;20025;-70
2023/06/16 04:35:39;;;;;;;21.63;6.57;;;;;;;-144.73;78.89;54171.66;5058286;28;20032;-70
2023/06/16 04:38:06;;;;;;;19.25;6.72;;;;;;;-144.73;79.53;54198.34;5061645;28;20035;-70
2023/06/16 04:40:31;;;;;;;13.13;6.32;;;;;;;-144.73;79.54;54132.69;5057471;28;20044;-69
2023/06/16 04:42:57;;;;;;;11.00;5.63;;;;;;;-144.73;79.18;54153.19;5058978;28;20028;-70
2023/06/16 04:45:22;;;;;;;22.08;7.53;;;;;;;-144.73;80.61;54169.63;5042190;28;20032;-70
2023/06/16 04:47:50;;;;;;;13.35;7.00;;;;;;;-144.73;80.01;54153.19;5061492;28;20049;-70
2023/06/16 04:50:16;;;;;;;17.17;6.57;;;;;;;-144.73;81.33;54198.34;5032364;28;20025;-70
2023/06/16 04:52:42;;;;;;;17.50;7.47;;;;;;;-144.73;80.89;54171.66;5030842;28;20051;-70
2023/06/16 04:55:08;;;;;;;19.10;7.65;;;;;;;-144.73;81.24;54169.63;5027099;28;20021;-70
2023/06/16 04:57:34;;;;;;;13.02;7.68;;;;;;;-144.73;81.28;54145.00;5027625;28;20033;-70
2023/06/16 05:00:02;;;;;;;15.07;6.90;;;;;;;-144.73;80.82;54149.09;5029349;28;20032;-70
2023/06/16 05:02:27;;;;;;;23.23;8.13;;;;;;;-144.73;78.22;54145.00;5031310;28;20117;-70
2023/06/16 05:04:53;;;;;;;16.35;7.63;;;;;;;-144.73;77.69;54177.81;5031446;28;20116;-70
2023/06/16 05:07:18;;;;;;;16.98;8.02;;;;;;;-144.73;79.65;54177.81;5051556;28;20056;-69
2023/06/16 05:09:45;;;;;;;12.85;8.30;;;;;;;-144.73;81.31;54132.69;5058309;28;20056;-69
2023/06/16 05:12:10;;;;;;;18.88;8.07;;;;;;;-144.73;81.47;54153.19;5044069;28;20033;-70
2023/06/16 05:14:36;;;;;;;17.35;8.88;;;;;;;-144.73;84.84;54145.00;5043223;28;20070;-70
2023/06/16 05:17:01;;;;;;;14.93;8.23;;;;;;;-144.73;85.98;54196.28;5056480;28;20033;-69
2023/06/16 05:19:27;;;;;;;15.50;8.25;;;;;;;-144.73;85.28;54157.31;5040400;28;20025;-70
2023/06/16 05:21:53;;;;;;;17.17;8.93;;;;;;;-144.73;84.95;54169.63;5045859;28;20067;-70
2023/06/16 05:24:18;;;;;;;17.13;9.05;;;;;;;-144.73;85.05;54173.72;5040860;28;20028;-72
2023/06/16 05:26:43;;;;;;;21.30;8.25;;;;;;;-144.73;85.01;54149.09;5054651;28;20020;-73
2023/06/16 05:29:09;;;;;;;18.08;8.77;;;;;;;-144.73;85.83;54149.09;5044817;28;20032;-73
2023/06/16 05:31:37;;;;;;;14.38;8.88;;;;;;;-144.73;88.90;54181.94;5037233;28;20017;-74
2023/06/16 05:34:02;;;;;;;19.38;10.10;;;;;;;-144.73;88.41;54220.94;5039614;28;20099;-72
2023/06/16 05:36:29;;;;;;;33.17;9.40;;;;;;;-144.73;87.59;54218.88;5032402;28;20024;-71
2023/06/16 05:38:55;;;;;;;16.17;8.95;;;;;;;-144.73;86.88;54194.25;5031041;28;20025;-72
2023/06/16 05:41:24;;;;;;;15.02;8.90;;;;;;;-144.73;88.42;54165.50;5045267;28;20017;-72
2023/06/16 05:43:51;;;;;;;16.02;10.32;;;;;;;-144.73;89.09;54165.50;5039827;28;20035;-72
2023/06/16 05:46:16;;;;;;;19.48;10.15;;;;;;;-144.73;90.00;54190.13;5041497;28;20021;-72
2023/06/16 05:48:42;;;;;;;23.20;10.40;;;;;;;-144.73;89.71;54198.34;5055865;28;20479;-73
2023/06/16 05:51:08;;;;;;;21.33;9.93;;;;;;;-144.73;90.09;54190.13;5041369;28;20040;-72
2023/06/16 05:53:33;;;;;;;15.50;9.90;;;;;;;-144.73;88.77;54192.19;5044241;28;20036;-72
2023/06/16 05:55:58;;;;;;;21.45;9.10;;;;;;;-144.73;87.71;54222.97;5055678;28;20028;-72
2023/06/16 05:58:24;;;;;;;17.45;10.45;;;;;;;-144.73;86.41;54186.03;5041754;28;20064;-72
2023/06/16 06:00:49;;;;;;;16.90;10.27;;;;;;;-144.73;86.18;54186.03;5062252;28;20057;-72
2023/06/16 06:03:15;;;;;;;22.10;9.52;;;;;;;-144.73;84.42;54210.66;5042137;28;20107;-73
2023/06/16 06:05:40;;;;;;;33.30;9.63;;;;;;;-144.73;82.62;54181.94;5042921;28;20048;-73
2023/06/16 06:08:05;;;;;;;15.82;9.35;;;;;;;-144.73;86.96;54157.31;5030974;28;20029;-70
2023/06/16 06:10:31;;;;;;;20.65;9.38;;;;;;;-144.73;85.55;54183.97;5033100;28;20016;-72
2023/06/16 06:12:56;;;;;;;17.23;9.50;;;;;;;-144.73;85.60;54204.50;5043543;28;20507;-72
2023/06/16 06:15:21;;;;;;;17.42;9.63;;;;;;;-144.73;85.68;54194.25;5040386;28;20044;-72
2023/06/16 06:17:47;;;;;;;15.98;8.80;;;;;;;-144.73;84.71;54165.50;5037117;28;20087;-72
2023/06/16 06:20:12;;;;;;;18.40;9.45;;;;;;;-144.73;84.63;54169.63;5039095;28;20364;-72
2023/06/16 06:22:37;;;;;;;16.35;9.00;;;;;;;-144.73;83.51;54194.25;5044283;28;20067;-73
2023/06/16 06:25:04;;;;;;;27.42;9.73;;;;;;;-144.73;81.17;54157.31;5045066;28;20016;-72
2023/06/16 06:27:30;;;;;;;18.77;8.80;;;;;;;-144.73;82.34;54190.13;5060285;28;20052;-72
2023/06/16 06:29:55;;;;;;;32.38;8.77;;;;;;;-144.73;81.19;54186.03;5041341;28;20072;-72
2023/06/16 06:32:21;;;;;;;16.70;8.30;;;;;;;-144.73;81.04;54177.81;5042654;28;20052;-72
2023/06/16 06:34:46;;;;;;;22.35;8.77;;;;;;;-144.73;81.46;54214.78;5040754;28;20052;-72
2023/06/16 06:37:16;;;;;;;14.48;8.07;;;;;;;-144.73;79.82;54177.81;5056870;28;20067;-73
2023/06/16 06:39:42;;;;;;;15.55;7.95;;;;;;;-144.73;79.07;54206.56;5040051;28;20405;-72
2023/06/16 06:42:07;;;;;;;22.08;8.30;;;;;;;-144.73;79.73;54181.94;5043548;28;20033;-73
2023/06/16 06:44:33;;;;;;;17.63;7.50;;;;;;;-144.73;79.57;54198.34;5039402;28;20029;-73
2023/06/16 06:46:58;;;;;;;19.02;7.07;;;;;;;-144.73;77.13;54177.81;5045057;28;20089;-73
2023/06/16 06:49:24;;;;;;;10.93;7.43;;;;;;;-144.73;77.57;54190.13;5039080;28;20044;-71
2023/06/16 06:51:50;;;;;;;15.25;8.77;;;;;;;-144.73;78.35;54157.31;5049141;28;20033;-72
2023/06/16 06:54:15;;;;;;;16.48;7.38;;;;;;;-144.73;78.43;54181.94;5043402;28;20009;-73
2023/06/16 06:56:41;;;;;;;15.15;7.60;;;;;;;-144.73;77.61;54186.03;5041619;28;20104;-72
2023/06/16 06:59:06;;;;;;;14.60;8.55;;;;;;;-144.73;77.68;54198.34;5056489;28;20028;-73
2023/06/16 07:01:32;;;;;;;16.13;8.68;;;;;;;-144.73;79.90;54190.13;5044780;28;20020;-74
2023/06/16 07:03:57;;;;;;;16.35;8.75;;;;;;;-144.73;82.68;54198.34;5060450;28;20029;-73
2023/06/16 07:06:23;;;;;;;23.70;8.60;;;;;;;-144.73;80.71;54161.41;5037138;28;20087;-73
2023/06/16 07:08:48;;;;;;;19.02;8.80;;;;;;;-144.73;81.17;54157.31;5036978;28;20037;-74
2023/06/16 07:11:13;;;;;;;17.30;9.43;;;;;;;-144.73;81.10;54165.50;5034934;28;20029;-74
2023/06/16 07:13:39;;;;;;;22.65;8.57;;;;;;;-144.73;80.20;54190.13;5038638;28;20041;-74
2023/06/16 07:16:05;;;;;;;22.05;8.52;;;;;;;-144.73;79.76;54153.19;5065318;28;20024;-74
2023/06/16 07:18:30;;;;;;;16.95;8.85;;;;;;;-144.73;77.54;54181.94;5037333;28;20029;-74
2023/06/16 07:20:55;;;;;;;16.55;7.90;;;;;;;-144.73;74.76;54108.03;5039953;28;20028;-71
2023/06/16 07:23:21;;;;;;;22.15;8.43;;;;;;;-144.73;76.58;54173.72;5039509;28;20036;-73
2023/06/16 07:25:46;;;;;;;13.07;7.75;;;;;;;-144.73;75.56;54186.03;5042094;28;20051;-74
2023/06/16 07:28:12;;;;;;;14.38;7.32;;;;;;;-144.73;72.59;54145.00;5066579;28;20052;-73
2023/06/16 07:30:37;;;;;;;13.90;8.45;;;;;;;-144.73;71.53;54200.41;5034099;28;20136;-72
2023/06/16 07:33:03;;;;;;;20.25;8.10;;;;;;;-144.73;71.67;54173.72;5035328;28;20028;-73
2023/06/16 07:35:28;;;;;;;11.40;7.25;;;;;;;-144.73;70.63;54186.03;5041437;28;20025;-72
2023/06/16 07:37:53;;;;;;;26.85;7.60;;;;;;;-144.73;70.69;54202.44;5036778;28;20119;-74
2023/06/16 07:40:19;;;;;;;22.98;8.30;;;;;;;-144.73;69.27;54153.19;5053105;28;20056;-74
2023/06/16 07:42:45;;;;;;;16.98;7.28;;;;;;;-144.73;69.07;54124.47;5055902;28;20051;-75
2023/06/16 07:45:11;;;;;;;16.63;6.38;;;;;;;-144.73;67.15;54194.25;5041476;28;20036;-74
2023/06/16 07:47:38;;;;;;;23.08;6.78;;;;;;;-144.73;64.79;54095.72;5036188;28;20032;-75
2023/06/16 07:50:04;;;;;;;16.00;7.40;;;;;;;-144.73;64.11;54134.72;5042663;28;20099;-72
2023/06/16 07:52:29;;;;;;;19.30;7.85;;;;;;;-144.73;64.04;54161.41;5047257;28;20123;-74
2023/06/16 07:54:55;;;;;;;17.55;7.55;;;;;;;-144.73;67.25;54124.47;5037790;28;20032;-75
2023/06/16 07:57:20;;;;;;;15.05;6.63;;;;;;;-144.73;66.86;54157.31;5043158;28;20036;-71
2023/06/16 07:59:45;;;;;;;10.00;6.43;;;;;;;-144.73;66.23;54145.00;5034161;28;20089;-72
2023/06/16 08:02:11;;;;;;;19.58;8.93;;;;;;;-144.73;66.75;54165.50;5054647;28;20029;-72
2023/06/16 08:04:37;;;;;;;13.95;7.43;;;;;;;-144.73;66.96;54157.31;5039504;28;20049;-73
2023/06/16 08:07:03;;;;;;;19.25;8.18;;;;;;;-144.73;66.47;54181.94;5036705;28;20041;-72
2023/06/16 08:09:28;;;;;;;13.25;7.50;;;;;;;-144.73;66.43;54149.09;5040333;28;20042;-73
2023/06/16 08:11:54;;;;;;;16.15;7.70;;;;;;;-144.73;69.56;54202.44;5040232;28;20055;-73
2023/06/16 08:14:20;;;;;;;20.92;8.48;;;;;;;-144.73;71.73;54157.31;5040551;28;20025;-71
2023/06/16 08:16:45;;;;;;;12.25;8.82;;;;;;;-144.73;73.81;54181.94;5033293;28;20074;-72
2023/06/16 08:19:11;;;;;;;14.85;9.15;;;;;;;-144.73;76.99;54153.19;5036126;28;20070;-72
2023/06/16 08:21:37;;;;;;;16.38;9.85;;;;;;;-144.73;77.64;54163.47;5032545;28;20071;-73
2023/06/16 08:24:03;;;;;;;20.55;9.50;;;;;;;-144.73;79.53;54169.63;5039074;28;20371;-71
2023/06/16 08:26:28;;;;;;;15.95;9.50;;;;;;;-144.73;80.58;54194.25;5034936;28;20025;-73
2023/06/16 08:28:54;;;;;;;14.95;8.52;;;;;;;-144.73;80.74;54153.19;5036543;28;20017;-73
2023/06/16 08:31:20;;;;;;;21.77;10.40;;;;;;;-144.73;81.87;54173.72;5041798;28;20024;-75
2023/06/16 08:33:45;;;;;;;15.38;9.65;;;;;;;-144.73;79.60;54145.00;5034677;28;20062;-72
2023/06/16 08:36:11;;;;;;;17.20;9.85;;;;;;;-144.73;79.92;54165.50;5036893;28;20044;-71
2023/06/16 08:38:37;;;;;;;21.20;8.88;;;;;;;-144.73;82.96;54165.50;5041858;28;20061;-73
2023/06/16 08:41:10;;;;;;;17.45;10.63;;;;;;;-144.73;82.45;54186.03;5034149;28;20059;-72
2023/06/16 08:43:37;;;;;;;19.48;9.95;;;;;;;-144.73;83.64;54149.09;5054462;28;20032;-73
2023/06/16 08:46:08;;;;;;;21.40;10.75;;;;;;;-144.73;79.43;54181.94;5058032;28;20112;-72
2023/06/16 08:48:35;;;;;;;20.48;11.27;;;;;;;-144.73;85.93;54202.44;5041836;28;20088;-73
2023/06/16 08:51:01;;;;;;;23.38;11.85;;;;;;;-144.73;85.79;54128.56;5037288;28;20085;-73
2023/06/16 08:53:31;;;;;;;16.85;11.40;;;;;;;-144.73;85.50;54177.81;5039091;28;20029;-74
2023/06/16 08:55:58;;;;;;;17.38;11.27;;;;;;;-144.73;84.40;54181.94;5038814;28;20025;-73
2023/06/16 08:58:25;;;;;;;17.35;9.65;;;;;;;-144.73;82.71;54188.09;5052807;28;20499;-73
2023/06/16 09:00:51;;;;;;;18.20;9.93;;;;;;;-144.73;81.63;54157.31;5035311;28;20041;-73
2023/06/16 09:03:17;;;;;;;14.77;9.85;;;;;;;-144.73;83.30;54177.81;5054776;28;20032;-73
2023/06/16 09:05:42;;;;;;;16.40;8.48;;;;;;;-144.73;82.89;54173.72;5032685;28;20021;-74
2023/06/16 09:08:08;;;;;;;15.18;8.43;;;;;;;-144.73;83.35;54173.72;5046898;28;20040;-73
2023/06/16 09:10:34;;;;;;;19.05;9.55;;;;;;;-144.73;84.05;54171.66;5030558;28;20016;-73
2023/06/16 09:13:00;;;;;;;16.98;9.65;;;;;;;-144.73;85.95;54194.25;5062259;28;20036;-71
2023/06/16 09:15:26;;;;;;;16.98;9.43;;;;;;;-144.73;87.46;54177.81;5062555;28;20025;-71
2023/06/16 09:17:52;;;;;;;19.70;10.45;;;;;;;-144.73;87.45;54181.94;5035116;28;20075;-74
2023/06/16 09:20:19;;;;;;;19.63;9.93;;;;;;;-144.73;89.08;54181.94;5050544;28;20021;-72
2023/06/16 09:22:59;;;;;;;26.65;10.95;;;;;;;-144.73;89.68;54173.72;5035467;28;20032;-72
2023/06/16 09:25:25;;;;;;;17.63;11.18;;;;;;;-144.73;92.42;54186.03;5035679;28;20046;-72
2023/06/16 09:27:55;;;;;;;24.42;11.65;;;;;;;-144.73;94.96;54190.13;5059373;28;20042;-78
2023/06/16 09:30:30;;;;;;;17.75;9.88;;;;;;;-144.73;94.07;54165.50;5037217;28;20118;-77
2023/06/16 09:32:55;;;;;;;24.13;10.57;;;;;;;-144.73;96.27;54196.28;5041599;28;20037;-75
2023/06/16 09:35:22;;;;;;;21.80;10.38;;;;;;;-144.73;93.65;54173.72;5040404;28;20020;-76
2023/06/16 09:37:49;;;;;;;13.10;9.23;;;;;;;-144.73;90.86;54173.72;5058770;28;20082;-76
2023/06/16 09:40:16;;;;;;;15.27;9.13;;;;;;;-144.73;88.88;54165.50;5040785;28;20017;-79
2023/06/16 09:42:44;;;;;;;17.60;9.52;;;;;;;-144.73;87.95;54181.94;5042432;28;20031;-76
2023/06/16 09:45:12;;;;;;;20.85;8.23;;;;;;;-144.73;87.22;54200.41;5066461;28;20028;-78
2023/06/16 09:47:38;;;;;;;16.00;8.70;;;;;;;-144.73;88.31;54165.50;5038513;28;20028;-76
2023/06/16 09:50:07;;;;;;;15.13;8.82;;;;;;;-144.73;86.87;54188.09;5050742;28;20070;-75
2023/06/16 09:52:36;;;;;;;13.05;7.22;;;;;;;-144.73;84.05;54132.69;5038646;28;20063;-75
2023/06/16 09:55:02;;;;;;;18.48;8.68;;;;;;;-144.73;81.90;54161.41;5043674;28;20108;-75
2023/06/16 09:57:28;;;;;;;25.23;7.85;;;;;;;-144.73;80.10;54177.81;5043257;28;20029;-76
2023/06/16 09:59:54;;;;;;;18.13;8.30;;;;;;;-144.73;79.16;54157.31;5042663;28;20028;-74
2023/06/16 10:02:23;;;;;;;14.52;7.93;;;;;;;-144.73;78.98;54165.50;5045009;28;20052;-76
2023/06/16 10:04:51;;;;;;;20.98;8.15;;;;;;;-144.73;80.67;54177.81;5058490;28;20013;-74
2023/06/16 10:07:17;;;;;;;16.17;7.47;;;;;;;-144.73;78.93;54165.50;5042224;28;20511;-79
2023/06/16 10:09:47;;;;;;;17.92;8.23;;;;;;;-144.73;79.88;54200.41;5048548;28;20077;-76
2023/06/16 10:12:14;;;;;;;16.40;8.02;;;;;;;-144.73;82.83;54173.72;5037109;28;20484;-79
2023/06/16 10:14:41;;;;;;;15.02;7.80;;;;;;;-144.73;81.51;54222.97;5042008;28;20125;-75
2023/06/16 10:17:09;;;;;;;15.65;6.90;;;;;;;-144.73;80.40;54169.63;5043533;28;20159;-74
2023/06/16 10:19:37;;;;;;;12.68;7.88;;;;;;;-144.73;81.10;54190.13;5047023;28;20100;-76
2023/06/16 10:22:03;;;;;;;19.00;7.43;;;;;;;-144.73;81.34;54206.56;5041468;28;20037;-77
2023/06/16 10:24:32;;;;;;;16.10;7.65;;;;;;;-144.73;81.51;54206.56;5046749;28;20027;-75
2023/06/16 10:26:59;;;;;;;17.48;7.65;;;;;;;-144.73;81.26;54177.81;5040924;28;20033;-76
2023/06/16 10:29:27;;;;;;;22.08;7.40;;;;;;;-144.73;83.52;54181.94;5039279;28;20063;-75
2023/06/16 10:32:06;;;;;;;25.08;7.63;;;;;;;-144.73;84.11;54161.41;5034675;28;20029;-76
2023/06/16 10:34:46;;;;;;;24.52;8.50;;;;;;;-144.73;86.65;54202.44;5041675;28;20020;-75
2023/06/16 10:37:14;;;;;;;15.77;7.53;;;;;;;-144.73;86.51;54214.78;5059984;28;20040;-78
2023/06/16 10:39:43;;;;;;;21.00;9.65;;;;;;;-144.73;85.06;54227.09;5035357;28;20035;-76
2023/06/16 10:42:11;;;;;;;19.95;7.70;;;;;;;-144.73;81.38;54169.63;5033276;28;20033;-76
2023/06/16 10:44:37;;;;;;;13.32;7.03;;;;;;;-144.73;80.66;54169.63;5035150;28;20024;-76
2023/06/16 10:47:08;;;;;;;15.25;8.13;;;;;;;-144.73;82.39;54157.31;5040965;28;20501;-75
2023/06/16 10:49:50;;;;;;;15.48;7.10;;;;;;;-144.73;80.05;54161.41;5040145;28;20056;-76
2023/06/16 10:52:31;;;;;;;16.35;6.80;;;;;;;-144.73;77.93;54128.56;5035288;28;20040;-75
2023/06/16 10:54:58;;;;;;;19.30;8.27;;;;;;;-144.73;81.44;54151.16;5043840;28;20033;-79
2023/06/16 10:57:25;;;;;;;20.85;7.15;;;;;;;-144.73;85.02;54149.09;5041526;28;20167;-76
2023/06/16 11:00:10;;;;;;;14.60;8.13;;;;;;;-144.73;84.69;54206.56;5046466;28;20031;-75
2023/06/16 11:02:38;;;;;;;23.90;8.10;;;;;;;-144.73;86.55;54214.78;5040243;28;20487;-73
2023/06/16 11:05:07;;;;;;;14.55;6.97;;;;;;;-144.73;84.63;54183.97;5054767;28;20009;-73
2023/06/16 11:07:32;;;;;;;10.23;7.35;;;;;;;-144.73;82.54;54173.72;5036469;28;20057;-72